Time,TemperatureF,DewpointF,PressureIn,WindDirection,WindDirectionDegrees,WindSpeedMPH,WindSpeedGustMPH,Humidity,HourlyPrecipIn,Conditions,Clouds,dailyrainin,SoftwareType,DateUTC
2013-05-24 00:14:00,47.1,30.0,29.92,SSE,168,1.0,2.0,52,0.00,,,0.00,weatherlink.com 1.10,2013-05-24 07:14:00,
2013-05-24 00:29:00,46.9,30.0,29.92,SSE,162,2.0,2.0,53,0.00,,,0.00,weatherlink.com 1.10,2013-05-24 07:29:00,
2013-05-24 00:44:00,46.3,31.0,29.92,SSE,148,2.0,3.0,55,0.00,,,0.00,weatherlink.com 1.10,2013-05-24 07:44:00,
2013-05-24 00:59:00,45.9,31.0,29.91,SSE,152,1.0,2.0,56,0.00,,,0.00,weatherlink.com 1.10,2013-05-24 07:59:00,
2013-05-24 01:14:00,46.0,31.0,29.92,SE,140,1.0,3.0,56,0.00,,,0.00,weatherlink.com 1.10,2013-05-24 08:14:00,
2013-05-24 01:29:00,46.1,31.0,29.92,SE,143,1.0,3.0,56,0.00,,,0.00,weatherlink.com 1.10,2013-05-24 08:29:00,
2013-05-24 01:44:00,45.8,31.0,29.92,SE,136,0.0,1.0,57,0.00,,,0.00,weatherlink.com 1.10,2013-05-24 08:44:00,
2013-05-24 01:59:00,45.1,31.0,29.91,SE,137,0.0,0.0,58,0.00,,,0.00,weatherlink.com 1.10,2013-05-24 08:59:00,
2013-05-24 02:14:00,44.4,31.0,29.91,SE,136,0.0,0.0,59,0.00,,,0.00,weatherlink.com 1.10,2013-05-24 09:14:00,
2013-05-24 02:29:00,44.1,31.0,29.91,West,276,0.0,0.0,61,0.00,,,0.00,weatherlink.com 1.10,2013-05-24 09:29:00,
2013-05-24 02:44:00,43.7,31.0,29.91,West,276,0.0,0.0,62,0.00,,,0.00,weatherlink.com 1.10,2013-05-24 09:44:00,
2013-05-24 02:59:00,42.6,31.0,29.91,SE,143,0.0,1.0,64,0.00,,,0.00,weatherlink.com 1.10,2013-05-24 09:59:00,
2013-05-24 03:14:00,42.8,31.0,29.91,SE,142,0.0,1.0,64,0.00,,,0.00,weatherlink.com 1.10,2013-05-24 10:14:00,
2013-05-24 03:29:00,43.0,31.0,29.91,SE,143,0.0,0.0,63,0.00,,,0.00,weatherlink.com 1.10,2013-05-24 10:29:00,
2013-05-24 03:44:00,42.8,31.0,29.90,SE,143,0.0,0.0,64,0.00,,,0.00,weatherlink.com 1.10,2013-05-24 10:44:00,
2013-05-24 03:59:00,42.6,31.0,29.90,SE,142,0.0,0.0,65,0.00,,,0.00,weatherlink.com 1.10,2013-05-24 10:59:00,
2013-05-24 04:14:00,42.3,32.0,29.90,SE,146,0.0,0.0,66,0.00,,,0.00,weatherlink.com 1.10,2013-05-24 11:14:00,
2013-05-24 04:29:00,42.0,31.0,29.90,South,170,0.0,0.0,66,0.00,,,0.00,weatherlink.com 1.10,2013-05-24 11:29:00,
2013-05-24 04:44:00,42.0,32.0,29.90,South,170,0.0,0.0,67,0.00,,,0.00,weatherlink.com 1.10,2013-05-24 11:44:00,
2013-05-24 04:59:00,41.4,32.0,29.90,South,171,0.0,0.0,69,0.00,,,0.00,weatherlink.com 1.10,2013-05-24 11:59:00,
2013-05-24 05:14:00,40.3,32.0,29.89,SSE,167,0.0,0.0,72,0.00,,,0.00,weatherlink.com 1.10,2013-05-24 12:14:00,
2013-05-24 05:29:00,40.1,32.0,29.90,SSE,167,0.0,0.0,72,0.00,,,0.00,weatherlink.com 1.10,2013-05-24 12:29:00,
2013-05-24 05:44:00,39.4,31.0,29.90,SSE,168,0.0,0.0,73,0.00,,,0.00,weatherlink.com 1.10,2013-05-24 12:44:00,
2013-05-24 05:59:00,39.6,32.0,29.90,SSE,156,0.0,0.0,74,0.00,,,0.00,weatherlink.com 1.10,2013-05-24 12:59:00,
2013-05-24 06:14:00,40.4,33.0,29.91,SSE,155,2.0,2.0,75,0.00,,,0.00,weatherlink.com 1.10,2013-05-24 13:14:00,
2013-05-24 06:30:00,41.2,34.0,29.91,SSE,167,4.0,6.0,75,0.00,,,0.00,weatherlink.com 1.10,2013-05-24 13:30:00,
2013-05-24 06:45:00,39.7,33.0,29.92,WSW,252,2.0,6.0,78,0.00,,,0.00,weatherlink.com 1.10,2013-05-24 13:45:00,
2013-05-24 07:00:00,40.2,34.0,29.92,NNW,345,1.0,2.0,78,0.00,,,0.00,weatherlink.com 1.10,2013-05-24 14:00:00,
2013-05-24 07:15:00,41.0,34.0,29.92,NNW,332,2.0,5.0,77,0.00,,,0.00,weatherlink.com 1.10,2013-05-24 14:15:00,
2013-05-24 07:30:00,42.3,36.0,29.93,NW,307,1.0,3.0,77,0.00,,,0.00,weatherlink.com 1.10,2013-05-24 14:30:00,
2013-05-24 07:45:00,43.5,36.0,29.93,WNW,288,0.0,2.0,76,0.00,,,0.00,weatherlink.com 1.10,2013-05-24 14:45:00,
2013-05-24 08:00:00,44.1,36.0,29.93,NW,304,1.0,2.0,73,0.00,,,0.00,weatherlink.com 1.10,2013-05-24 15:00:00,
2013-05-24 08:15:00,45.3,38.0,29.93,NW,312,1.0,1.0,75,0.00,,,0.00,weatherlink.com 1.10,2013-05-24 15:15:00,
2013-05-24 08:30:00,45.2,37.0,29.93,WNW,287,0.0,3.0,73,0.00,,,0.00,weatherlink.com 1.10,2013-05-24 15:30:00,
2013-05-24 08:45:00,46.4,39.0,29.92,WNW,295,1.0,3.0,74,0.00,,,0.00,weatherlink.com 1.10,2013-05-24 15:45:00,
2013-05-24 09:00:00,46.4,38.0,29.92,SW,215,3.0,7.0,73,0.00,,,0.00,weatherlink.com 1.10,2013-05-24 16:00:00,
2013-05-24 09:15:00,45.8,39.0,29.93,SW,236,3.0,11.0,77,0.00,,,0.00,weatherlink.com 1.10,2013-05-24 16:15:00,
2013-05-24 09:30:00,43.5,38.0,29.93,SSW,207,6.0,12.0,80,0.00,,,0.00,weatherlink.com 1.10,2013-05-24 16:30:00,
2013-05-24 09:45:00,42.2,37.0,29.93,South,190,9.0,15.0,82,0.00,,,0.00,weatherlink.com 1.10,2013-05-24 16:45:00,
2013-05-24 10:00:00,41.4,37.0,29.93,SW,225,9.0,16.0,84,0.00,,,0.00,weatherlink.com 1.10,2013-05-24 17:00:00,
2013-05-24 10:15:00,41.3,37.0,29.94,SSW,194,4.0,12.0,85,0.00,,,0.00,weatherlink.com 1.10,2013-05-24 17:15:00,
2013-05-24 10:30:00,41.8,38.0,29.94,South,176,6.0,12.0,85,0.00,,,0.00,weatherlink.com 1.10,2013-05-24 17:30:00,
2013-05-24 10:45:00,42.8,38.0,29.94,SSW,204,5.0,11.0,82,0.00,,,0.00,weatherlink.com 1.10,2013-05-24 17:45:00,
2013-05-24 11:00:00,42.9,38.0,29.94,SW,217,9.0,9.0,83,0.00,,,0.00,weatherlink.com 1.10,2013-05-24 18:00:00,
2013-05-24 11:15:00,42.9,38.0,29.94,SSW,213,5.0,11.0,83,0.00,,,0.00,weatherlink.com 1.10,2013-05-24 18:15:00,
2013-05-24 11:30:00,43.4,38.0,29.94,SW,225,6.0,15.0,81,0.00,,,0.00,weatherlink.com 1.10,2013-05-24 18:30:00,
2013-05-24 11:45:00,42.8,38.0,29.94,SSW,210,11.0,12.0,82,0.00,,,0.00,weatherlink.com 1.10,2013-05-24 18:45:00,
2013-05-24 12:00:00,42.7,37.0,29.94,SSW,208,5.0,14.0,80,0.00,,,0.00,weatherlink.com 1.10,2013-05-24 19:00:00,
2013-05-24 12:15:00,42.7,37.0,29.95,SSW,212,7.0,13.0,81,0.00,,,0.00,weatherlink.com 1.10,2013-05-24 19:15:00,
2013-05-24 12:30:00,43.4,38.0,29.95,SW,214,7.0,10.0,80,0.00,,,0.00,weatherlink.com 1.10,2013-05-24 19:30:00,
2013-05-24 12:45:00,44.0,37.0,29.95,SW,217,7.0,12.0,77,0.00,,,0.00,weatherlink.com 1.10,2013-05-24 19:45:00,
2013-05-24 13:00:00,44.2,37.0,29.95,SSW,197,7.0,10.0,76,0.00,,,0.00,weatherlink.com 1.10,2013-05-24 20:00:00,
2013-05-24 13:15:00,46.4,38.0,29.94,SW,222,6.0,13.0,73,0.00,,,0.00,weatherlink.com 1.10,2013-05-24 20:15:00,
2013-05-24 13:30:00,46.3,38.0,29.95,SW,218,4.0,10.0,72,0.00,,,0.00,weatherlink.com 1.10,2013-05-24 20:30:00,
2013-05-24 13:45:00,45.3,38.0,29.95,SW,215,5.0,12.0,75,0.00,,,0.00,weatherlink.com 1.10,2013-05-24 20:45:00,
2013-05-24 14:00:00,46.9,38.0,29.95,SW,226,7.0,15.0,72,0.00,,,0.00,weatherlink.com 1.10,2013-05-24 21:00:00,
2013-05-24 14:15:00,46.7,38.0,29.95,SSW,212,4.0,10.0,72,0.00,,,0.00,weatherlink.com 1.10,2013-05-24 21:15:00,
2013-05-24 14:30:00,49.5,39.0,29.95,South,191,8.0,12.0,67,0.00,,,0.00,weatherlink.com 1.10,2013-05-24 21:30:00,
2013-05-24 14:45:00,51.1,37.0,29.95,South,177,8.0,16.0,59,0.00,,,0.00,weatherlink.com 1.10,2013-05-24 21:45:00,
2013-05-24 15:00:00,48.9,38.0,29.95,SW,228,10.0,13.0,65,0.00,,,0.00,weatherlink.com 1.10,2013-05-24 22:00:00,
2013-05-24 15:15:00,48.5,38.0,29.95,SSW,201,3.0,14.0,66,0.00,,,0.00,weatherlink.com 1.10,2013-05-24 22:15:00,
2013-05-24 15:30:00,49.7,38.0,29.95,WSW,242,1.0,8.0,65,0.00,,,0.00,weatherlink.com 1.10,2013-05-24 22:30:00,
2013-05-24 15:45:00,51.1,40.0,29.95,SSW,194,3.0,11.0,65,0.00,,,0.00,weatherlink.com 1.10,2013-05-24 22:45:00,
2013-05-24 16:00:00,51.1,38.0,29.95,SSW,200,2.0,10.0,61,0.00,,,0.00,weatherlink.com 1.10,2013-05-24 23:00:00,
2013-05-24 16:15:00,51.5,37.0,29.95,SSW,204,7.0,13.0,57,0.00,,,0.00,weatherlink.com 1.10,2013-05-24 23:15:00,
2013-05-24 16:30:00,50.4,38.0,29.95,SW,214,5.0,11.0,63,0.00,,,0.00,weatherlink.com 1.10,2013-05-24 23:30:00,
2013-05-24 16:45:00,49.5,39.0,29.95,SSE,163,8.0,16.0,67,0.00,,,0.00,weatherlink.com 1.10,2013-05-24 23:45:00,
2013-05-24 17:00:00,48.7,39.0,29.96,South,188,7.0,14.0,69,0.00,,,0.00,weatherlink.com 1.10,2013-05-25 00:00:00,
2013-05-24 17:15:00,49.0,39.0,29.96,South,177,9.0,16.0,69,0.00,,,0.00,weatherlink.com 1.10,2013-05-25 00:15:00,
2013-05-24 17:30:00,49.1,40.0,29.96,South,177,8.0,13.0,70,0.00,,,0.00,weatherlink.com 1.10,2013-05-25 00:30:00,
2013-05-24 17:45:00,50.0,39.0,29.96,SSW,204,4.0,13.0,67,0.00,,,0.00,weatherlink.com 1.10,2013-05-25 00:45:00,
2013-05-24 18:00:00,48.8,40.0,29.96,SW,235,6.0,14.0,73,0.00,,,0.00,weatherlink.com 1.10,2013-05-25 01:00:00,
2013-05-24 18:15:00,47.8,40.0,29.97,SW,214,2.0,11.0,73,0.00,,,0.00,weatherlink.com 1.10,2013-05-25 01:15:00,
2013-05-24 18:30:00,47.3,38.0,29.97,South,187,4.0,7.0,69,0.00,,,0.00,weatherlink.com 1.10,2013-05-25 01:30:00,
2013-05-24 18:46:00,47.3,38.0,29.97,SW,217,6.0,9.0,69,0.00,,,0.00,weatherlink.com 1.10,2013-05-25 01:46:00,
2013-05-24 19:01:00,47.5,39.0,29.98,SW,226,2.0,5.0,71,0.00,,,0.00,weatherlink.com 1.10,2013-05-25 02:01:00,
2013-05-24 19:16:00,48.5,40.0,29.97,West,280,1.0,3.0,72,0.00,,,0.00,weatherlink.com 1.10,2013-05-25 02:16:00,
2013-05-24 19:31:00,48.8,39.0,29.97,SW,222,1.0,6.0,69,0.00,,,0.00,weatherlink.com 1.10,2013-05-25 02:31:00,
2013-05-24 19:46:00,48.9,39.0,29.97,SSW,212,4.0,7.0,69,0.00,,,0.00,weatherlink.com 1.10,2013-05-25 02:46:00,
2013-05-24 20:01:00,47.7,38.0,29.97,SSW,200,4.0,7.0,69,0.00,,,0.00,weatherlink.com 1.10,2013-05-25 03:01:00,
2013-05-24 20:16:00,46.9,38.0,29.97,SE,143,1.0,7.0,71,0.00,,,0.00,weatherlink.com 1.10,2013-05-25 03:16:00,
2013-05-24 20:31:00,46.4,38.0,29.97,SE,137,2.0,5.0,73,0.00,,,0.00,weatherlink.com 1.10,2013-05-25 03:31:00,
2013-05-24 20:46:00,46.3,38.0,29.97,SSE,160,6.0,10.0,74,0.00,,,0.00,weatherlink.com 1.10,2013-05-25 03:46:00,
2013-05-24 21:01:00,46.2,37.0,29.98,SSE,158,12.0,12.0,71,0.00,,,0.00,weatherlink.com 1.10,2013-05-25 04:01:00,
2013-05-24 21:16:00,45.8,38.0,29.98,South,169,9.0,10.0,75,0.00,,,0.00,weatherlink.com 1.10,2013-05-25 04:16:00,
2013-05-24 21:31:00,45.4,38.0,29.99,ESE,113,4.0,10.0,75,0.00,,,0.00,weatherlink.com 1.10,2013-05-25 04:31:00,
2013-05-24 21:46:00,45.1,37.0,29.99,SSE,160,7.0,12.0,73,0.00,,,0.00,weatherlink.com 1.10,2013-05-25 04:46:00,
2013-05-24 22:01:00,44.6,37.0,29.99,SE,133,4.0,11.0,74,0.00,,,0.00,weatherlink.com 1.10,2013-05-25 05:01:00,
2013-05-24 22:16:00,44.4,37.0,29.98,SSE,159,4.0,10.0,74,0.00,,,0.00,weatherlink.com 1.10,2013-05-25 05:16:00,
2013-05-24 22:31:00,44.6,37.0,29.98,SE,131,2.0,9.0,74,0.00,,,0.00,weatherlink.com 1.10,2013-05-25 05:31:00,
2013-05-24 22:46:00,44.8,37.0,29.98,SSE,152,7.0,11.0,73,0.00,,,0.00,weatherlink.com 1.10,2013-05-25 05:46:00,
2013-05-24 23:01:00,44.8,37.0,29.98,SE,142,6.0,7.0,73,0.00,,,0.00,weatherlink.com 1.10,2013-05-25 06:01:00,
2013-05-24 23:16:00,44.8,37.0,29.98,SE,134,3.0,10.0,73,0.00,,,0.00,weatherlink.com 1.10,2013-05-25 06:16:00,
2013-05-24 23:32:00,44.4,36.0,29.98,SSE,165,4.0,6.0,73,0.00,,,0.00,weatherlink.com 1.10,2013-05-25 06:32:00,
2013-05-24 23:46:00,44.4,36.0,29.97,SSW,203,2.0,5.0,73,0.00,,,0.00,weatherlink.com 1.10,2013-05-25 06:46:00,